createdAt,value
2023-01-20T00:00:35.650Z,1001.35
2023-01-20T00:01:35.609Z,1001.38
2023-01-20T00:02:35.671Z,1001.40
2023-01-20T00:03:35.599Z,1001.40
2023-01-20T00:04:35.563Z,1001.41
2023-01-20T00:05:35.589Z,1001.42
2023-01-20T00:06:35.561Z,1001.41
2023-01-20T00:07:35.598Z,1001.41
2023-01-20T00:08:35.580Z,1001.40
2023-01-20T00:09:35.523Z,1001.41
2023-01-20T00:10:35.498Z,1001.41
2023-01-20T00:11:35.506Z,1001.42
2023-01-20T00:12:35.504Z,1001.42
2023-01-20T00:13:35.565Z,1001.43
2023-01-20T00:14:35.480Z,1001.44
2023-01-20T00:15:35.475Z,1001.47
2023-01-20T00:16:35.473Z,1001.49
2023-01-20T00:17:35.496Z,1001.50
2023-01-20T00:18:35.427Z,1001.51
2023-01-20T00:19:35.470Z,1001.52
2023-01-20T00:20:35.440Z,1001.53
2023-01-20T00:21:35.419Z,1001.53
2023-01-20T00:22:35.407Z,1001.55
2023-01-20T00:23:35.407Z,1001.56
2023-01-20T00:24:35.404Z,1001.56
2023-01-20T00:25:35.359Z,1001.57
2023-01-20T00:26:35.352Z,1001.57
2023-01-20T00:27:35.357Z,1001.57
2023-01-20T00:28:35.344Z,1001.57
2023-01-20T00:29:35.358Z,1001.56
2023-01-20T00:30:35.397Z,1001.56
2023-01-20T00:31:35.409Z,1001.56
2023-01-20T00:32:35.291Z,1001.57
2023-01-20T00:33:35.305Z,1001.55
2023-01-20T00:34:35.282Z,1001.56
2023-01-20T00:35:35.317Z,1001.56
2023-01-20T00:36:35.255Z,1001.57
2023-01-20T00:37:35.300Z,1001.57
2023-01-20T00:38:35.225Z,1001.58
2023-01-20T00:39:35.232Z,1001.59
2023-01-20T00:40:35.215Z,1001.60
2023-01-20T00:41:35.204Z,1001.60
2023-01-20T00:42:35.255Z,1001.61
2023-01-20T00:43:35.194Z,1001.62
2023-01-20T00:44:35.170Z,1001.64
2023-01-20T00:45:35.169Z,1001.64
2023-01-20T00:46:35.191Z,1001.65
2023-01-20T00:47:35.226Z,1001.66
2023-01-20T00:48:35.131Z,1001.67
2023-01-20T00:49:35.133Z,1001.69
2023-01-20T00:50:35.133Z,1001.70
2023-01-20T00:51:35.120Z,1001.71
2023-01-20T00:52:35.078Z,1001.71
2023-01-20T00:53:35.128Z,1001.70
2023-01-20T00:54:35.215Z,1001.70
2023-01-20T00:55:35.073Z,1001.70
2023-01-20T00:56:35.060Z,1001.70
2023-01-20T00:57:35.087Z,1001.70
2023-01-20T00:58:35.032Z,1001.70
2023-01-20T00:59:35.065Z,1001.70
2023-01-20T01:00:35.050Z,1001.70
2023-01-20T01:01:35.204Z,1001.71
2023-01-20T01:02:35.068Z,1001.71
2023-01-20T01:03:35.006Z,1001.72
2023-01-20T01:04:34.966Z,1001.73
2023-01-20T01:05:34.988Z,1001.74
2023-01-20T01:06:34.976Z,1001.75
2023-01-20T01:07:35.001Z,1001.75
2023-01-20T01:08:34.929Z,1001.76
2023-01-20T01:09:34.936Z,1001.77
2023-01-20T01:10:34.903Z,1001.78
2023-01-20T01:11:34.951Z,1001.79
2023-01-20T01:12:34.936Z,1001.80
2023-01-20T01:13:34.961Z,1001.80
2023-01-20T01:14:34.893Z,1001.80
2023-01-20T01:15:34.870Z,1001.80
2023-01-20T01:16:34.968Z,1001.81
2023-01-20T01:17:34.898Z,1001.82
2023-01-20T01:18:34.859Z,1001.83
2023-01-20T01:19:34.878Z,1001.83
2023-01-20T01:20:34.832Z,1001.83
2023-01-20T01:21:34.864Z,1001.83
2023-01-20T01:22:34.823Z,1001.84
2023-01-20T01:23:34.854Z,1001.87
2023-01-20T01:24:34.804Z,1001.89
2023-01-20T01:25:34.813Z,1001.91
2023-01-20T01:26:34.751Z,1001.93
2023-01-20T01:27:34.763Z,1001.96
2023-01-20T01:28:34.763Z,1001.98
2023-01-20T01:29:34.735Z,1002.00
2023-01-20T01:30:34.789Z,1002.02
2023-01-20T01:31:34.850Z,1002.03
2023-01-20T01:32:34.727Z,1002.06
2023-01-20T01:33:34.705Z,1002.07
2023-01-20T01:34:34.699Z,1002.07
2023-01-20T01:35:34.688Z,1002.07
2023-01-20T01:36:34.829Z,1002.08
2023-01-20T01:37:34.703Z,1002.11
2023-01-20T01:38:34.698Z,1002.12
2023-01-20T01:39:34.653Z,1002.13
2023-01-20T01:40:34.633Z,1002.16
2023-01-20T01:41:34.639Z,1002.17
2023-01-20T01:42:34.592Z,1002.19
2023-01-20T01:43:34.613Z,1002.21
2023-01-20T01:44:34.639Z,1002.23
2023-01-20T01:45:34.715Z,1002.23
2023-01-20T01:46:34.620Z,1002.23
2023-01-20T01:47:34.720Z,1002.23
2023-01-20T01:48:34.555Z,1002.22
2023-01-20T01:49:34.549Z,1002.23
2023-01-20T01:50:34.586Z,1002.24
2023-01-20T01:51:34.519Z,1002.25
2023-01-20T01:52:34.515Z,1002.27
2023-01-20T01:53:34.535Z,1002.28
2023-01-20T01:54:34.501Z,1002.29
2023-01-20T01:55:34.614Z,1002.30
2023-01-20T01:56:34.495Z,1002.32
2023-01-20T01:57:34.453Z,1002.33
2023-01-20T01:58:34.466Z,1002.34
2023-01-20T01:59:34.444Z,1002.34
2023-01-20T02:00:34.490Z,1002.34
2023-01-20T02:01:34.457Z,1002.34
2023-01-20T02:02:34.425Z,1002.35
2023-01-20T02:03:34.411Z,1002.36
2023-01-20T02:04:34.382Z,1002.38
2023-01-20T02:05:34.418Z,1002.41
2023-01-20T02:06:34.390Z,1002.44
2023-01-20T02:07:34.344Z,1002.45
2023-01-20T02:08:34.458Z,1002.47
2023-01-20T02:09:34.332Z,1002.50
2023-01-20T02:10:34.353Z,1002.51
2023-01-20T02:11:34.364Z,1002.53
2023-01-20T02:12:34.302Z,1002.53
2023-01-20T02:13:34.299Z,1002.53
2023-01-20T02:14:34.281Z,1002.53
2023-01-20T02:15:34.282Z,1002.54
2023-01-20T02:16:34.292Z,1002.54
2023-01-20T02:17:34.311Z,1002.54
2023-01-20T02:18:34.275Z,1002.54
2023-01-20T02:19:34.241Z,1002.55
2023-01-20T02:20:34.236Z,1002.55
2023-01-20T02:21:34.267Z,1002.56
2023-01-20T02:22:34.241Z,1002.56
2023-01-20T02:23:34.227Z,1002.57
2023-01-20T02:24:34.196Z,1002.58
2023-01-20T02:25:34.171Z,1002.58
2023-01-20T02:26:34.217Z,1002.58
2023-01-20T02:27:34.160Z,1002.58
2023-01-20T02:28:34.155Z,1002.59
2023-01-20T02:29:34.157Z,1002.61
2023-01-20T02:30:34.150Z,1002.61
2023-01-20T02:31:34.236Z,1002.63
2023-01-20T02:32:34.117Z,1002.64
2023-01-20T02:33:34.128Z,1002.65
2023-01-20T02:34:34.111Z,1002.66
2023-01-20T02:35:34.093Z,1002.68
2023-01-20T02:36:34.119Z,1002.70
2023-01-20T02:37:34.073Z,1002.70
2023-01-20T02:38:34.041Z,1002.71
2023-01-20T02:39:34.091Z,1002.72
2023-01-20T02:40:34.033Z,1002.73
2023-01-20T02:41:34.055Z,1002.74
2023-01-20T02:42:34.050Z,1002.75
2023-01-20T02:43:34.005Z,1002.75
2023-01-20T02:44:34.038Z,1002.75
2023-01-20T02:45:33.985Z,1002.76
2023-01-20T02:46:34.026Z,1002.76
2023-01-20T02:47:33.980Z,1002.77
2023-01-20T02:48:33.945Z,1002.79
2023-01-20T02:49:34.021Z,1002.80
2023-01-20T02:50:33.924Z,1002.82
2023-01-20T02:51:33.935Z,1002.83
2023-01-20T02:52:33.907Z,1002.84
2023-01-20T02:53:33.895Z,1002.85
2023-01-20T02:54:33.933Z,1002.85
2023-01-20T02:55:33.914Z,1002.85
2023-01-20T02:56:33.918Z,1002.85
2023-01-20T02:57:33.887Z,1002.86
2023-01-20T02:58:33.873Z,1002.87
2023-01-20T02:59:33.916Z,1002.88
2023-01-20T03:00:33.857Z,1002.88
2023-01-20T03:01:33.945Z,1002.89
2023-01-20T03:02:33.859Z,1002.90
2023-01-20T03:03:33.972Z,1002.91
2023-01-20T03:04:33.812Z,1002.92
2023-01-20T03:05:33.846Z,1002.94
2023-01-20T03:06:33.819Z,1002.96
2023-01-20T03:07:33.826Z,1002.97
2023-01-20T03:08:33.767Z,1002.98
2023-01-20T03:09:33.772Z,1002.99
2023-01-20T03:10:33.745Z,1003.01
2023-01-20T03:11:36.082Z,1003.03
2023-01-20T03:12:33.749Z,1003.05
2023-01-20T03:13:33.745Z,1003.06
2023-01-20T03:14:33.708Z,1003.07
2023-01-20T03:15:33.689Z,1003.09
2023-01-20T03:16:33.766Z,1003.09
2023-01-20T03:17:33.745Z,1003.08
2023-01-20T03:18:33.681Z,1003.09
2023-01-20T03:19:33.821Z,1003.09
2023-01-20T03:20:33.651Z,1003.10
2023-01-20T03:21:33.663Z,1003.10
2023-01-20T03:22:33.663Z,1003.11
2023-01-20T03:23:33.677Z,1003.11
2023-01-20T03:24:33.616Z,1003.12
2023-01-20T03:25:33.596Z,1003.13
2023-01-20T03:26:33.592Z,1003.13
2023-01-20T03:27:33.585Z,1003.13
2023-01-20T03:28:33.554Z,1003.15
2023-01-20T03:29:33.613Z,1003.17
2023-01-20T03:30:33.662Z,1003.19
2023-01-20T03:31:33.778Z,1003.21
2023-01-20T03:32:33.532Z,1003.22
2023-01-20T03:33:33.592Z,1003.24
2023-01-20T03:34:33.514Z,1003.25
2023-01-20T03:35:33.532Z,1003.27
2023-01-20T03:36:33.502Z,1003.28
2023-01-20T03:37:33.487Z,1003.28
2023-01-20T03:38:33.496Z,1003.29
2023-01-20T03:39:33.491Z,1003.31
2023-01-20T03:40:33.628Z,1003.32
2023-01-20T03:41:33.437Z,1003.34
2023-01-20T03:42:33.447Z,1003.34
2023-01-20T03:43:33.421Z,1003.35
2023-01-20T03:44:33.416Z,1003.35
2023-01-20T03:45:33.399Z,1003.36
2023-01-20T03:46:33.417Z,1003.37
2023-01-20T03:47:33.528Z,1003.39
2023-01-20T03:48:33.383Z,1003.40
2023-01-20T03:49:33.383Z,1003.41
2023-01-20T03:50:33.374Z,1003.43
2023-01-20T03:51:33.390Z,1003.44
2023-01-20T03:52:46.468Z,1003.46
2023-01-20T03:53:33.371Z,1003.46
2023-01-20T03:54:33.317Z,1003.46
2023-01-20T03:55:33.333Z,1003.47
2023-01-20T03:56:33.333Z,1003.47
2023-01-20T03:57:33.345Z,1003.48
2023-01-20T03:58:33.295Z,1003.49
2023-01-20T03:59:33.263Z,1003.51
2023-01-20T04:00:33.311Z,1003.53
2023-01-20T04:01:33.341Z,1003.56
2023-01-20T04:02:33.279Z,1003.59
2023-01-20T04:03:33.324Z,1003.60
2023-01-20T04:04:33.203Z,1003.60
2023-01-20T04:05:33.199Z,1003.59
2023-01-20T04:06:33.215Z,1003.59
2023-01-20T04:07:33.206Z,1003.58
2023-01-20T04:08:33.191Z,1003.60
2023-01-20T04:09:33.199Z,1003.61
2023-01-20T04:10:33.156Z,1003.62
2023-01-20T04:11:33.171Z,1003.63
2023-01-20T04:12:33.137Z,1003.63
2023-01-20T04:13:33.143Z,1003.64
2023-01-20T04:14:33.111Z,1003.65
2023-01-20T04:15:33.126Z,1003.65
2023-01-20T04:16:33.120Z,1003.66
2023-01-20T04:17:33.169Z,1003.66
2023-01-20T04:18:33.081Z,1003.67
2023-01-20T04:19:33.107Z,1003.68
2023-01-20T04:20:33.070Z,1003.69
2023-01-20T04:21:33.091Z,1003.69
2023-01-20T04:22:33.028Z,1003.70
2023-01-20T04:23:33.034Z,1003.68
2023-01-20T04:24:33.032Z,1003.67
2023-01-20T04:25:33.014Z,1003.66
2023-01-20T04:26:33.013Z,1003.66
2023-01-20T04:27:33.014Z,1003.66
2023-01-20T04:28:33.014Z,1003.68
2023-01-20T04:29:32.982Z,1003.70
2023-01-20T04:30:33.015Z,1003.72
2023-01-20T04:31:33.070Z,1003.73
2023-01-20T04:32:33.011Z,1003.74
2023-01-20T04:33:32.928Z,1003.74
2023-01-20T04:34:32.922Z,1003.76
2023-01-20T04:35:32.902Z,1003.77
2023-01-20T04:36:32.909Z,1003.79
2023-01-20T04:37:32.910Z,1003.79
2023-01-20T04:38:32.871Z,1003.80
2023-01-20T04:39:33.045Z,1003.80
2023-01-20T04:40:32.861Z,1003.80
2023-01-20T04:41:32.861Z,1003.80
2023-01-20T04:42:32.862Z,1003.80
2023-01-20T04:43:32.849Z,1003.79
2023-01-20T04:44:32.809Z,1003.79
2023-01-20T04:45:32.796Z,1003.78
2023-01-20T04:46:34.702Z,1003.78
2023-01-20T04:47:32.886Z,1003.78
2023-01-20T04:48:32.785Z,1003.79
2023-01-20T04:49:32.783Z,1003.79
2023-01-20T04:50:32.787Z,1003.79
2023-01-20T04:51:32.788Z,1003.79
2023-01-20T04:52:32.753Z,1003.80
2023-01-20T04:53:32.777Z,1003.80
2023-01-20T04:54:32.730Z,1003.80
2023-01-20T04:55:32.701Z,1003.80
2023-01-20T04:56:32.729Z,1003.81
2023-01-20T04:57:32.716Z,1003.81
2023-01-20T04:58:32.670Z,1003.82
2023-01-20T04:59:32.676Z,1003.84
2023-01-20T05:00:32.769Z,1003.85
2023-01-20T05:01:32.826Z,1003.85
2023-01-20T05:02:32.735Z,1003.86
2023-01-20T05:03:32.640Z,1003.88
2023-01-20T05:04:32.627Z,1003.90
2023-01-20T05:05:32.608Z,1003.93
2023-01-20T05:06:32.614Z,1003.96
2023-01-20T05:07:32.786Z,1003.97
2023-01-20T05:08:32.604Z,1003.98
2023-01-20T05:09:32.575Z,1004.00
2023-01-20T05:10:32.576Z,1004.01
2023-01-20T05:11:32.554Z,1004.01
2023-01-20T05:12:32.581Z,1004.02
2023-01-20T05:13:32.518Z,1004.02
2023-01-20T05:14:32.560Z,1004.02
2023-01-20T05:15:32.677Z,1004.02
2023-01-20T05:16:32.515Z,1004.01
2023-01-20T05:17:32.494Z,1004.01
2023-01-20T05:18:32.491Z,1004.01
2023-01-20T05:19:32.474Z,1004.01
2023-01-20T05:20:32.494Z,1004.03
2023-01-20T05:21:32.474Z,1004.05
2023-01-20T05:22:32.443Z,1004.07
2023-01-20T05:23:32.467Z,1004.11
2023-01-20T05:24:32.449Z,1004.13
2023-01-20T05:25:32.431Z,1004.15
2023-01-20T05:26:32.425Z,1004.17
2023-01-20T05:27:32.378Z,1004.18
2023-01-20T05:28:32.392Z,1004.18
2023-01-20T05:29:32.386Z,1004.21
2023-01-20T05:30:32.440Z,1004.23
2023-01-20T05:31:32.442Z,1004.25
2023-01-20T05:32:32.389Z,1004.26
2023-01-20T05:33:32.348Z,1004.27
2023-01-20T05:34:32.352Z,1004.28
2023-01-20T05:35:32.314Z,1004.30
2023-01-20T05:36:32.320Z,1004.31
2023-01-20T05:37:32.326Z,1004.31
2023-01-20T05:38:32.272Z,1004.31
2023-01-20T05:39:32.291Z,1004.31
2023-01-20T05:40:32.430Z,1004.32
2023-01-20T05:41:32.271Z,1004.32
2023-01-20T05:42:32.272Z,1004.33
2023-01-20T05:43:32.243Z,1004.34
2023-01-20T05:44:32.311Z,1004.35
2023-01-20T05:45:32.234Z,1004.35
2023-01-20T05:46:32.287Z,1004.37
2023-01-20T05:47:32.191Z,1004.40
2023-01-20T05:48:32.139Z,1004.42
2023-01-20T05:49:32.343Z,1004.44
2023-01-20T05:50:32.183Z,1004.45
2023-01-20T05:51:32.190Z,1004.47
2023-01-20T05:52:32.219Z,1004.48
2023-01-20T05:53:32.178Z,1004.48
2023-01-20T05:54:32.101Z,1004.49
2023-01-20T05:55:32.132Z,1004.49
2023-01-20T05:56:32.151Z,1004.50
2023-01-20T05:57:32.130Z,1004.51
2023-01-20T05:58:32.153Z,1004.52
2023-01-20T05:59:32.139Z,1004.53
2023-01-20T06:00:32.110Z,1004.53
2023-01-20T06:01:32.079Z,1004.54
2023-01-20T06:02:32.055Z,1004.55
2023-01-20T06:03:32.084Z,1004.57
2023-01-20T06:04:32.178Z,1004.59
2023-01-20T06:05:32.014Z,1004.62
2023-01-20T06:06:31.964Z,1004.63
2023-01-20T06:07:32.012Z,1004.65
2023-01-20T06:08:31.985Z,1004.67
2023-01-20T06:09:32.037Z,1004.68
2023-01-20T06:10:32.123Z,1004.69
2023-01-20T06:11:31.954Z,1004.68
2023-01-20T06:12:31.946Z,1004.70
2023-01-20T06:13:31.901Z,1004.71
2023-01-20T06:14:31.945Z,1004.73
2023-01-20T06:15:31.919Z,1004.75
2023-01-20T06:16:31.989Z,1004.75
2023-01-20T06:17:31.887Z,1004.78
2023-01-20T06:18:31.924Z,1004.79
2023-01-20T06:19:31.870Z,1004.81
2023-01-20T06:20:31.871Z,1004.84
2023-01-20T06:21:31.813Z,1004.86
2023-01-20T06:22:31.892Z,1004.86
2023-01-20T06:23:31.803Z,1004.86
2023-01-20T06:24:31.896Z,1004.85
2023-01-20T06:25:31.836Z,1004.85
2023-01-20T06:26:31.746Z,1004.87
2023-01-20T06:27:31.786Z,1004.88
2023-01-20T06:28:31.844Z,1004.88
2023-01-20T06:29:31.748Z,1004.88
2023-01-20T06:30:31.846Z,1004.88
2023-01-20T06:31:31.829Z,1004.90
2023-01-20T06:32:31.800Z,1004.92
2023-01-20T06:33:31.748Z,1004.94
2023-01-20T06:34:31.724Z,1004.95
2023-01-20T06:35:31.773Z,1004.97
2023-01-20T06:36:31.886Z,1004.98
2023-01-20T06:37:31.743Z,1004.99
2023-01-20T06:38:31.726Z,1005.00
2023-01-20T06:39:31.682Z,1005.02
2023-01-20T06:40:31.662Z,1005.03
2023-01-20T06:41:31.622Z,1005.05
2023-01-20T06:42:31.650Z,1005.05
2023-01-20T06:43:31.633Z,1005.05
2023-01-20T06:44:31.653Z,1005.06
2023-01-20T06:45:31.597Z,1005.07
2023-01-20T06:46:31.606Z,1005.08
2023-01-20T06:47:31.566Z,1005.10
2023-01-20T06:48:31.539Z,1005.09
2023-01-20T06:49:31.544Z,1005.10
2023-01-20T06:50:31.517Z,1005.11
2023-01-20T06:51:31.577Z,1005.11
2023-01-20T06:52:31.554Z,1005.12
2023-01-20T06:53:31.505Z,1005.13
2023-01-20T06:54:31.521Z,1005.13
2023-01-20T06:55:31.487Z,1005.12
2023-01-20T06:56:31.469Z,1005.12
2023-01-20T06:57:31.541Z,1005.13
2023-01-20T06:58:31.561Z,1005.14
2023-01-20T06:59:31.455Z,1005.15
2023-01-20T07:00:31.439Z,1005.16
2023-01-20T07:01:31.478Z,1005.18
2023-01-20T07:02:31.466Z,1005.19
2023-01-20T07:03:31.374Z,1005.20
2023-01-20T07:04:31.567Z,1005.21
2023-01-20T07:05:31.373Z,1005.21
2023-01-20T07:06:31.418Z,1005.22
2023-01-20T07:07:31.363Z,1005.22
2023-01-20T07:08:31.337Z,1005.23
2023-01-20T07:09:31.372Z,1005.24
2023-01-20T07:10:31.323Z,1005.26
2023-01-20T07:11:31.338Z,1005.27
2023-01-20T07:12:31.315Z,1005.29
2023-01-20T07:13:31.280Z,1005.31
2023-01-20T07:14:31.290Z,1005.33
2023-01-20T07:15:31.302Z,1005.36
2023-01-20T07:16:31.281Z,1005.38
2023-01-20T07:17:31.227Z,1005.40
2023-01-20T07:18:31.268Z,1005.40
2023-01-20T07:19:31.210Z,1005.40
2023-01-20T07:20:31.403Z,1005.41
2023-01-20T07:21:31.203Z,1005.42
2023-01-20T07:22:31.278Z,1005.44
2023-01-20T07:23:31.219Z,1005.45
2023-01-20T07:24:31.217Z,1005.48
2023-01-20T07:25:31.184Z,1005.49
2023-01-20T07:26:31.188Z,1005.49
2023-01-20T07:27:31.195Z,1005.49
2023-01-20T07:28:31.137Z,1005.50
2023-01-20T07:29:31.144Z,1005.52
2023-01-20T07:30:31.144Z,1005.54
2023-01-20T07:31:31.177Z,1005.56
2023-01-20T07:32:31.153Z,1005.57
2023-01-20T07:33:31.083Z,1005.57
2023-01-20T07:34:31.168Z,1005.59
2023-01-20T07:35:31.393Z,1005.61
2023-01-20T07:36:31.055Z,1005.64
2023-01-20T07:37:31.053Z,1005.65
2023-01-20T07:38:31.069Z,1005.67
2023-01-20T07:39:32.123Z,1005.68
2023-01-20T07:42:28.103Z,1005.68
2023-01-20T07:49:36.138Z,1005.75
2023-01-20T07:50:36.687Z,1005.73
2023-01-20T07:51:43.680Z,1005.72
2023-01-20T07:52:43.698Z,1005.72
2023-01-20T07:55:24.987Z,1005.75
2023-01-20T08:00:30.663Z,1005.81
2023-01-20T08:01:25.554Z,1005.83
2023-01-20T08:02:28.441Z,1005.86
2023-01-20T08:06:11.586Z,1005.89
2023-01-20T08:07:04.639Z,1005.90
2023-01-20T08:08:04.600Z,1005.91
2023-01-20T08:09:04.675Z,1005.91
2023-01-20T08:10:04.645Z,1005.90
2023-01-20T08:11:04.585Z,1005.89
2023-01-20T08:12:04.575Z,1005.88
2023-01-20T08:13:04.544Z,1005.88
2023-01-20T08:14:04.556Z,1005.91
2023-01-20T08:15:04.596Z,1005.95
2023-01-20T08:16:04.550Z,1005.99
2023-01-20T08:17:04.594Z,1006.02
2023-01-20T08:18:04.529Z,1006.02
2023-01-20T08:19:04.541Z,1006.01
2023-01-20T08:20:04.539Z,1006.01
2023-01-20T08:21:04.568Z,1006.02
2023-01-20T08:22:04.480Z,1006.04
2023-01-20T08:23:04.588Z,1006.07
2023-01-20T08:24:04.553Z,1006.10
2023-01-20T08:25:04.483Z,1006.13
2023-01-20T08:26:04.430Z,1006.14
2023-01-20T08:27:04.457Z,1006.15
2023-01-20T08:28:05.596Z,1006.17
2023-01-20T08:29:04.420Z,1006.19
2023-01-20T08:30:04.379Z,1006.22
2023-01-20T08:31:04.444Z,1006.25
2023-01-20T08:32:04.431Z,1006.27
2023-01-20T08:33:04.369Z,1006.29
2023-01-20T08:34:04.376Z,1006.30
2023-01-20T08:35:04.353Z,1006.30
2023-01-20T08:36:04.317Z,1006.29
2023-01-20T08:37:04.334Z,1006.28
2023-01-20T08:38:04.335Z,1006.30
2023-01-20T08:39:04.367Z,1006.29
2023-01-20T08:40:04.283Z,1006.30
2023-01-20T08:41:04.334Z,1006.29
2023-01-20T08:42:04.340Z,1006.29
2023-01-20T08:43:04.264Z,1006.30
2023-01-20T08:44:04.316Z,1006.31
2023-01-20T08:45:04.224Z,1006.31
2023-01-20T08:46:04.315Z,1006.35
2023-01-20T08:47:04.209Z,1006.37
2023-01-20T08:48:04.214Z,1006.38
2023-01-20T08:49:04.250Z,1006.39
2023-01-20T08:50:04.254Z,1006.40
2023-01-20T08:51:04.170Z,1006.40
2023-01-20T08:52:04.235Z,1006.41
2023-01-20T08:53:04.177Z,1006.44
2023-01-20T08:54:04.251Z,1006.46
2023-01-20T08:55:04.133Z,1006.44
2023-01-20T08:56:04.138Z,1006.44
2023-01-20T08:57:04.199Z,1006.42
2023-01-20T08:58:04.282Z,1006.42
2023-01-20T08:59:04.089Z,1006.45
2023-01-20T09:00:04.171Z,1006.47
2023-01-20T09:01:04.079Z,1006.49
2023-01-20T09:02:04.137Z,1006.48
2023-01-20T09:03:04.199Z,1006.47
2023-01-20T09:04:06.178Z,1006.46
2023-01-20T09:05:04.057Z,1006.46
2023-01-20T09:06:04.020Z,1006.46
2023-01-20T09:07:04.075Z,1006.47
2023-01-20T09:08:04.059Z,1006.49
2023-01-20T09:09:04.990Z,1006.51
2023-01-20T09:10:04.006Z,1006.51
2023-01-20T09:11:03.988Z,1006.51
2023-01-20T09:12:03.965Z,1006.51
2023-01-20T09:13:03.973Z,1006.51
2023-01-20T09:14:03.955Z,1006.53
2023-01-20T09:15:05.068Z,1006.53
2023-01-20T09:16:04.013Z,1006.55
2023-01-20T09:17:03.929Z,1006.55
2023-01-20T09:18:03.904Z,1006.54
2023-01-20T09:19:03.908Z,1006.55
2023-01-20T09:20:03.894Z,1006.55
2023-01-20T09:21:03.894Z,1006.56
2023-01-20T09:22:03.890Z,1006.57
2023-01-20T09:23:03.900Z,1006.58
2023-01-20T09:24:03.906Z,1006.57
2023-01-20T09:25:04.834Z,1006.57
2023-01-20T09:26:03.836Z,1006.57
2023-01-20T09:27:03.800Z,1006.58
2023-01-20T09:28:05.473Z,1006.59
2023-01-20T09:29:03.832Z,1006.58
2023-01-20T09:30:03.796Z,1006.59
2023-01-20T09:31:03.852Z,1006.60
2023-01-20T09:32:03.929Z,1006.61
2023-01-20T09:33:04.542Z,1006.62
2023-01-20T09:34:03.763Z,1006.62
2023-01-20T09:35:03.784Z,1006.62
2023-01-20T09:36:03.786Z,1006.63
2023-01-20T09:37:03.709Z,1006.63
2023-01-20T09:38:06.554Z,1006.64
2023-01-20T09:39:03.805Z,1006.65
2023-01-20T09:40:03.680Z,1006.65
2023-01-20T09:41:03.681Z,1006.66
2023-01-20T09:42:03.723Z,1006.65
2023-01-20T09:43:03.942Z,1006.65
2023-01-20T09:44:03.657Z,1006.65
2023-01-20T09:45:04.112Z,1006.63
2023-01-20T09:46:03.694Z,1006.62
2023-01-20T09:47:03.614Z,1006.61
2023-01-20T09:48:04.135Z,1006.62
2023-01-20T09:49:03.752Z,1006.62
2023-01-20T09:50:03.625Z,1006.63
2023-01-20T09:51:03.627Z,1006.64
2023-01-20T09:52:03.563Z,1006.63
2023-01-20T09:53:03.612Z,1006.63
2023-01-20T09:54:03.722Z,1006.64
2023-01-20T09:55:03.515Z,1006.64
2023-01-20T09:56:03.737Z,1006.66
2023-01-20T09:57:03.516Z,1006.66
2023-01-20T09:58:03.671Z,1006.67
2023-01-20T09:59:03.523Z,1006.68
2023-01-20T10:00:03.501Z,1006.71
2023-01-20T10:01:03.499Z,1006.74
2023-01-20T10:02:03.473Z,1006.75
2023-01-20T10:03:03.459Z,1006.77
2023-01-20T10:04:04.904Z,1006.78
2023-01-20T10:05:03.471Z,1006.78
2023-01-20T10:06:03.480Z,1006.79
2023-01-20T10:07:03.429Z,1006.81
2023-01-20T10:08:03.390Z,1006.81
2023-01-20T10:09:06.188Z,1006.81
2023-01-20T10:10:04.017Z,1006.82
2023-01-20T10:11:03.409Z,1006.83
2023-01-20T10:12:03.369Z,1006.83
2023-01-20T10:13:03.334Z,1006.83
2023-01-20T10:14:03.449Z,1006.82
2023-01-20T10:15:03.338Z,1006.83
2023-01-20T10:16:03.356Z,1006.83
2023-01-20T10:17:03.315Z,1006.82
2023-01-20T10:18:03.338Z,1006.83
2023-01-20T10:19:03.261Z,1006.82
2023-01-20T10:20:03.277Z,1006.81
2023-01-20T10:21:03.257Z,1006.79
2023-01-20T10:22:03.271Z,1006.78
2023-01-20T10:23:03.314Z,1006.76
2023-01-20T10:24:03.285Z,1006.76
2023-01-20T10:25:03.284Z,1006.73
2023-01-20T10:26:03.300Z,1006.71
2023-01-20T10:27:03.227Z,1006.70
2023-01-20T10:28:03.239Z,1006.68
2023-01-20T10:29:03.219Z,1006.66
2023-01-20T10:30:03.260Z,1006.64
2023-01-20T10:31:03.354Z,1006.63
2023-01-20T10:32:03.231Z,1006.63
2023-01-20T10:33:03.220Z,1006.64
2023-01-20T10:34:03.151Z,1006.64
2023-01-20T10:35:03.276Z,1006.62
2023-01-20T10:36:03.118Z,1006.63
2023-01-20T10:37:03.149Z,1006.63
2023-01-20T10:38:03.139Z,1006.63
2023-01-20T10:39:03.062Z,1006.63
2023-01-20T10:40:03.591Z,1006.62
2023-01-20T10:41:03.186Z,1006.61
2023-01-20T10:42:03.136Z,1006.61
2023-01-20T10:43:03.048Z,1006.60
2023-01-20T10:44:03.113Z,1006.60
2023-01-20T10:45:03.030Z,1006.61
2023-01-20T10:46:03.122Z,1006.63
2023-01-20T10:47:02.996Z,1006.65
2023-01-20T10:48:03.036Z,1006.66
2023-01-20T10:49:02.992Z,1006.65
2023-01-20T10:50:03.456Z,1006.65
2023-01-20T10:51:03.248Z,1006.66
2023-01-20T10:52:03.057Z,1006.66
2023-01-20T10:53:02.961Z,1006.66
2023-01-20T10:54:03.056Z,1006.66
2023-01-20T10:55:02.902Z,1006.67
2023-01-20T10:56:03.008Z,1006.67
2023-01-20T10:57:04.680Z,1006.67
2023-01-20T10:58:02.895Z,1006.68
2023-01-20T10:59:02.914Z,1006.68
2023-01-20T11:00:02.960Z,1006.68
2023-01-20T11:01:02.921Z,1006.68
2023-01-20T11:02:11.957Z,1006.68
2023-01-20T11:03:02.952Z,1006.68
2023-01-20T11:04:02.877Z,1006.69
2023-01-20T11:05:03.582Z,1006.67
2023-01-20T11:06:03.047Z,1006.68
2023-01-20T11:07:03.162Z,1006.67
2023-01-20T11:08:02.955Z,1006.68
2023-01-20T11:09:02.955Z,1006.68
2023-01-20T11:10:02.911Z,1006.67
2023-01-20T11:11:02.896Z,1006.67
2023-01-20T11:12:02.780Z,1006.67
2023-01-20T11:13:02.777Z,1006.67
2023-01-20T11:14:02.856Z,1006.68
2023-01-20T11:15:02.712Z,1006.67
2023-01-20T11:16:02.772Z,1006.65
2023-01-20T11:17:02.713Z,1006.65
2023-01-20T11:18:02.715Z,1006.65
2023-01-20T11:19:02.904Z,1006.64
2023-01-20T11:20:02.740Z,1006.63
2023-01-20T11:21:02.689Z,1006.65
2023-01-20T11:22:02.677Z,1006.66
2023-01-20T11:23:02.703Z,1006.66
2023-01-20T11:24:03.002Z,1006.68
2023-01-20T11:25:02.670Z,1006.70
2023-01-20T11:26:02.623Z,1006.68
2023-01-20T11:27:02.675Z,1006.72
2023-01-20T11:28:02.577Z,1006.73
2023-01-20T11:29:02.607Z,1006.74
2023-01-20T11:30:03.634Z,1006.74
2023-01-20T11:31:02.783Z,1006.75
2023-01-20T11:32:02.587Z,1006.74
2023-01-20T11:33:02.582Z,1006.74
2023-01-20T11:34:02.570Z,1006.73
2023-01-20T11:35:02.757Z,1006.72
2023-01-20T11:36:02.545Z,1006.71
2023-01-20T11:37:02.509Z,1006.70
2023-01-20T11:38:02.494Z,1006.70
2023-01-20T11:39:02.537Z,1006.71
2023-01-20T11:40:02.496Z,1006.71
2023-01-20T11:41:02.563Z,1006.73
2023-01-20T11:42:02.658Z,1006.74
2023-01-20T11:43:02.815Z,1006.77
2023-01-20T11:44:02.567Z,1006.78
2023-01-20T11:45:20.213Z,1006.77
2023-01-20T11:46:02.530Z,1006.76
2023-01-20T11:47:02.586Z,1006.75
2023-01-20T11:48:02.467Z,1006.72
2023-01-20T11:49:03.969Z,1006.72
2023-01-20T11:50:02.907Z,1006.71
2023-01-20T11:51:02.453Z,1006.74
2023-01-20T11:52:02.404Z,1006.73
2023-01-20T11:53:02.522Z,1006.74
2023-01-20T11:54:02.440Z,1006.74
2023-01-20T11:55:02.337Z,1006.75
2023-01-20T11:56:02.516Z,1006.76
2023-01-20T11:57:02.375Z,1006.78
2023-01-20T11:58:02.284Z,1006.77
2023-01-20T11:59:02.342Z,1006.76
2023-01-20T12:00:02.303Z,1006.77
2023-01-20T12:01:02.276Z,1006.75
2023-01-20T12:02:02.382Z,1006.75
2023-01-20T12:03:02.577Z,1006.73
2023-01-20T12:04:02.337Z,1006.73
2023-01-20T12:05:02.274Z,1006.73
2023-01-20T12:06:02.319Z,1006.71
2023-01-20T12:07:02.244Z,1006.72
2023-01-20T12:08:02.190Z,1006.73
2023-01-20T12:09:02.277Z,1006.73
2023-01-20T12:10:04.372Z,1006.75
2023-01-20T12:11:03.660Z,1006.75
2023-01-20T12:12:03.284Z,1006.74
2023-01-20T12:13:02.206Z,1006.75
2023-01-20T12:14:02.137Z,1006.74
2023-01-20T12:15:02.102Z,1006.73
2023-01-20T12:16:02.195Z,1006.72
2023-01-20T12:17:02.129Z,1006.71
2023-01-20T12:18:02.117Z,1006.71
2023-01-20T12:19:03.032Z,1006.70
2023-01-20T12:20:02.968Z,1006.71
2023-01-20T12:21:02.128Z,1006.70
2023-01-20T12:22:02.091Z,1006.71